sensor_id;sensor_type;location;lat;lon;timestamp;P1;durP1;ratioP1;P2;durP2;ratioP2
23714;SDS011;12036;50.858;4.472;2022-12-18T00:01:18;36.67;;;17.20;;
23714;SDS011;12036;50.858;4.472;2022-12-18T00:03:56;35.30;;;18.50;;
23714;SDS011;12036;50.858;4.472;2022-12-18T00:06:23;41.95;;;18.02;;
23714;SDS011;12036;50.858;4.472;2022-12-18T00:08:51;38.90;;;18.27;;
23714;SDS011;12036;50.858;4.472;2022-12-18T00:11:18;35.25;;;17.15;;
23714;SDS011;12036;50.858;4.472;2022-12-18T00:13:46;36.28;;;17.95;;
23714;SDS011;12036;50.858;4.472;2022-12-18T00:16:13;37.15;;;17.48;;
23714;SDS011;12036;50.858;4.472;2022-12-18T00:18:41;41.13;;;17.17;;
23714;SDS011;12036;50.858;4.472;2022-12-18T00:21:07;34.25;;;17.67;;
23714;SDS011;12036;50.858;4.472;2022-12-18T00:23:35;32.97;;;16.75;;
23714;SDS011;12036;50.858;4.472;2022-12-18T00:26:02;37.05;;;17.52;;
23714;SDS011;12036;50.858;4.472;2022-12-18T00:28:29;37.15;;;17.40;;
23714;SDS011;12036;50.858;4.472;2022-12-18T00:31:05;36.38;;;17.75;;
23714;SDS011;12036;50.858;4.472;2022-12-18T00:33:39;40.08;;;17.65;;
23714;SDS011;12036;50.858;4.472;2022-12-18T00:36:05;35.50;;;17.08;;
23714;SDS011;12036;50.858;4.472;2022-12-18T00:38:34;41.75;;;18.27;;
23714;SDS011;12036;50.858;4.472;2022-12-18T00:41:00;37.75;;;18.90;;
23714;SDS011;12036;50.858;4.472;2022-12-18T00:43:25;43.50;;;17.30;;
23714;SDS011;12036;50.858;4.472;2022-12-18T00:45:51;38.63;;;17.52;;
23714;SDS011;12036;50.858;4.472;2022-12-18T00:48:17;29.55;;;16.05;;
23714;SDS011;12036;50.858;4.472;2022-12-18T00:50:43;35.30;;;17.85;;
23714;SDS011;12036;50.858;4.472;2022-12-18T00:53:08;37.85;;;16.98;;
23714;SDS011;12036;50.858;4.472;2022-12-18T00:55:34;36.05;;;16.60;;
23714;SDS011;12036;50.858;4.472;2022-12-18T00:58:01;33.13;;;16.20;;
23714;SDS011;12036;50.858;4.472;2022-12-18T01:00:27;36.78;;;17.20;;
23714;SDS011;12036;50.858;4.472;2022-12-18T01:02:53;34.35;;;17.08;;
23714;SDS011;12036;50.858;4.472;2022-12-18T01:05:18;30.58;;;14.70;;
23714;SDS011;12036;50.858;4.472;2022-12-18T01:07:44;37.88;;;18.83;;
23714;SDS011;12036;50.858;4.472;2022-12-18T01:10:10;35.03;;;16.77;;
23714;SDS011;12036;50.858;4.472;2022-12-18T01:12:37;33.47;;;16.58;;
23714;SDS011;12036;50.858;4.472;2022-12-18T01:15:04;34.78;;;16.08;;
23714;SDS011;12036;50.858;4.472;2022-12-18T01:17:31;32.33;;;15.23;;
23714;SDS011;12036;50.858;4.472;2022-12-18T01:19:57;32.92;;;16.55;;
23714;SDS011;12036;50.858;4.472;2022-12-18T01:22:23;31.10;;;15.95;;
23714;SDS011;12036;50.858;4.472;2022-12-18T01:24:49;35.75;;;15.93;;
23714;SDS011;12036;50.858;4.472;2022-12-18T01:27:14;29.88;;;14.68;;
23714;SDS011;12036;50.858;4.472;2022-12-18T01:29:40;29.50;;;15.32;;
23714;SDS011;12036;50.858;4.472;2022-12-18T01:32:06;26.73;;;14.60;;
23714;SDS011;12036;50.858;4.472;2022-12-18T01:34:31;28.63;;;15.00;;
23714;SDS011;12036;50.858;4.472;2022-12-18T01:36:57;32.05;;;15.38;;
23714;SDS011;12036;50.858;4.472;2022-12-18T01:39:23;31.33;;;14.75;;
23714;SDS011;12036;50.858;4.472;2022-12-18T01:41:48;31.98;;;14.40;;
23714;SDS011;12036;50.858;4.472;2022-12-18T01:50:32;30.85;;;13.48;;
23714;SDS011;12036;50.858;4.472;2022-12-18T01:53:17;31.35;;;14.30;;
23714;SDS011;12036;50.858;4.472;2022-12-18T01:55:52;34.38;;;13.68;;
23714;SDS011;12036;50.858;4.472;2022-12-18T01:58:23;33.30;;;13.70;;
23714;SDS011;12036;50.858;4.472;2022-12-18T02:01:00;30.23;;;15.05;;
23714;SDS011;12036;50.858;4.472;2022-12-18T02:03:26;30.73;;;13.98;;
23714;SDS011;12036;50.858;4.472;2022-12-18T02:16:23;25.75;;;12.40;;
23714;SDS011;12036;50.858;4.472;2022-12-18T02:18:56;25.05;;;13.45;;
23714;SDS011;12036;50.858;4.472;2022-12-18T02:21:32;27.13;;;13.25;;
23714;SDS011;12036;50.858;4.472;2022-12-18T02:24:41;28.50;;;13.68;;
23714;SDS011;12036;50.858;4.472;2022-12-18T02:27:15;26.83;;;13.10;;
23714;SDS011;12036;50.858;4.472;2022-12-18T02:29:46;28.45;;;13.38;;
23714;SDS011;12036;50.858;4.472;2022-12-18T02:32:17;30.45;;;14.27;;
23714;SDS011;12036;50.858;4.472;2022-12-18T02:34:48;30.95;;;14.00;;
23714;SDS011;12036;50.858;4.472;2022-12-18T02:37:16;33.00;;;13.93;;
23714;SDS011;12036;50.858;4.472;2022-12-18T02:39:46;30.98;;;13.95;;
23714;SDS011;12036;50.858;4.472;2022-12-18T02:42:13;29.60;;;12.90;;
23714;SDS011;12036;50.858;4.472;2022-12-18T02:44:43;28.55;;;13.48;;
23714;SDS011;12036;50.858;4.472;2022-12-18T02:47:11;24.52;;;11.80;;
23714;SDS011;12036;50.858;4.472;2022-12-18T02:49:49;29.25;;;13.18;;
23714;SDS011;12036;50.858;4.472;2022-12-18T03:01:25;30.13;;;14.02;;
23714;SDS011;12036;50.858;4.472;2022-12-18T03:04:02;28.80;;;14.60;;
23714;SDS011;12036;50.858;4.472;2022-12-18T03:06:39;36.22;;;13.90;;
23714;SDS011;12036;50.858;4.472;2022-12-18T03:09:14;29.00;;;14.68;;
23714;SDS011;12036;50.858;4.472;2022-12-18T03:11:45;29.80;;;15.23;;
23714;SDS011;12036;50.858;4.472;2022-12-18T03:14:33;29.60;;;14.25;;
23714;SDS011;12036;50.858;4.472;2022-12-18T03:17:02;32.20;;;14.82;;
23714;SDS011;12036;50.858;4.472;2022-12-18T03:19:32;31.43;;;14.97;;
23714;SDS011;12036;50.858;4.472;2022-12-18T03:22:00;28.85;;;14.65;;
23714;SDS011;12036;50.858;4.472;2022-12-18T03:24:29;30.70;;;15.18;;
23714;SDS011;12036;50.858;4.472;2022-12-18T03:27:00;33.17;;;15.75;;
23714;SDS011;12036;50.858;4.472;2022-12-18T03:29:30;34.30;;;14.90;;
23714;SDS011;12036;50.858;4.472;2022-12-18T03:32:23;28.23;;;14.35;;
23714;SDS011;12036;50.858;4.472;2022-12-18T03:34:55;35.08;;;14.63;;
23714;SDS011;12036;50.858;4.472;2022-12-18T03:37:25;29.13;;;14.65;;
23714;SDS011;12036;50.858;4.472;2022-12-18T03:39:50;26.02;;;13.50;;
23714;SDS011;12036;50.858;4.472;2022-12-18T03:44:47;32.00;;;13.98;;
23714;SDS011;12036;50.858;4.472;2022-12-18T03:47:24;33.22;;;13.55;;
23714;SDS011;12036;50.858;4.472;2022-12-18T03:50:07;30.83;;;14.50;;
23714;SDS011;12036;50.858;4.472;2022-12-18T03:55:23;25.20;;;12.15;;
23714;SDS011;12036;50.858;4.472;2022-12-18T03:57:52;33.78;;;14.25;;
23714;SDS011;12036;50.858;4.472;2022-12-18T04:00:19;29.70;;;14.77;;
23714;SDS011;12036;50.858;4.472;2022-12-18T04:02:48;29.45;;;13.70;;
23714;SDS011;12036;50.858;4.472;2022-12-18T04:05:19;27.17;;;13.13;;
23714;SDS011;12036;50.858;4.472;2022-12-18T04:07:47;25.98;;;13.15;;
23714;SDS011;12036;50.858;4.472;2022-12-18T04:10:14;26.40;;;12.85;;
23714;SDS011;12036;50.858;4.472;2022-12-18T04:12:41;36.03;;;13.07;;
23714;SDS011;12036;50.858;4.472;2022-12-18T04:15:07;29.80;;;13.70;;
23714;SDS011;12036;50.858;4.472;2022-12-18T04:17:34;26.10;;;13.02;;
23714;SDS011;12036;50.858;4.472;2022-12-18T04:19:59;28.77;;;13.20;;
23714;SDS011;12036;50.858;4.472;2022-12-18T04:22:25;26.35;;;12.50;;
23714;SDS011;12036;50.858;4.472;2022-12-18T04:24:51;26.05;;;12.48;;
23714;SDS011;12036;50.858;4.472;2022-12-18T04:27:17;29.27;;;13.70;;
23714;SDS011;12036;50.858;4.472;2022-12-18T04:29:43;24.52;;;12.52;;
23714;SDS011;12036;50.858;4.472;2022-12-18T04:32:08;27.45;;;13.10;;
23714;SDS011;12036;50.858;4.472;2022-12-18T04:34:34;27.52;;;11.93;;
23714;SDS011;12036;50.858;4.472;2022-12-18T04:37:00;24.77;;;12.43;;
23714;SDS011;12036;50.858;4.472;2022-12-18T04:39:25;23.65;;;11.80;;
23714;SDS011;12036;50.858;4.472;2022-12-18T04:41:51;24.55;;;11.73;;
23714;SDS011;12036;50.858;4.472;2022-12-18T04:44:17;26.17;;;12.15;;
23714;SDS011;12036;50.858;4.472;2022-12-18T04:46:42;27.45;;;12.88;;
23714;SDS011;12036;50.858;4.472;2022-12-18T04:49:08;22.77;;;11.32;;
23714;SDS011;12036;50.858;4.472;2022-12-18T04:51:35;23.15;;;11.50;;
23714;SDS011;12036;50.858;4.472;2022-12-18T04:54:02;25.67;;;12.07;;
23714;SDS011;12036;50.858;4.472;2022-12-18T04:56:27;21.83;;;12.05;;
23714;SDS011;12036;50.858;4.472;2022-12-18T04:58:55;19.90;;;11.27;;
23714;SDS011;12036;50.858;4.472;2022-12-18T05:01:21;23.73;;;11.80;;
23714;SDS011;12036;50.858;4.472;2022-12-18T05:03:47;26.75;;;11.52;;
23714;SDS011;12036;50.858;4.472;2022-12-18T05:06:12;21.52;;;11.82;;
23714;SDS011;12036;50.858;4.472;2022-12-18T05:08:38;24.77;;;10.82;;
23714;SDS011;12036;50.858;4.472;2022-12-18T05:11:08;27.33;;;11.38;;
23714;SDS011;12036;50.858;4.472;2022-12-18T05:13:36;21.98;;;11.27;;
23714;SDS011;12036;50.858;4.472;2022-12-18T05:16:02;23.65;;;11.63;;
23714;SDS011;12036;50.858;4.472;2022-12-18T05:18:30;24.92;;;12.35;;
23714;SDS011;12036;50.858;4.472;2022-12-18T05:20:56;21.50;;;11.40;;
23714;SDS011;12036;50.858;4.472;2022-12-18T05:23:23;22.65;;;10.85;;
23714;SDS011;12036;50.858;4.472;2022-12-18T05:28:22;20.73;;;10.80;;
23714;SDS011;12036;50.858;4.472;2022-12-18T05:30:49;24.75;;;12.13;;
23714;SDS011;12036;50.858;4.472;2022-12-18T05:33:15;21.73;;;11.57;;
23714;SDS011;12036;50.858;4.472;2022-12-18T05:35:42;24.88;;;11.45;;
23714;SDS011;12036;50.858;4.472;2022-12-18T05:38:08;24.63;;;12.00;;
23714;SDS011;12036;50.858;4.472;2022-12-18T05:40:33;21.15;;;11.65;;
23714;SDS011;12036;50.858;4.472;2022-12-18T05:42:59;22.90;;;11.55;;
23714;SDS011;12036;50.858;4.472;2022-12-18T05:45:24;27.77;;;12.00;;
23714;SDS011;12036;50.858;4.472;2022-12-18T05:47:50;25.75;;;11.45;;
23714;SDS011;12036;50.858;4.472;2022-12-18T05:50:16;23.77;;;10.93;;
23714;SDS011;12036;50.858;4.472;2022-12-18T05:52:41;27.95;;;11.80;;
23714;SDS011;12036;50.858;4.472;2022-12-18T05:55:07;23.55;;;11.30;;
23714;SDS011;12036;50.858;4.472;2022-12-18T05:57:33;21.95;;;10.95;;
23714;SDS011;12036;50.858;4.472;2022-12-18T05:59:58;21.50;;;10.73;;
23714;SDS011;12036;50.858;4.472;2022-12-18T06:02:24;25.02;;;11.38;;
23714;SDS011;12036;50.858;4.472;2022-12-18T06:04:49;25.55;;;10.63;;
23714;SDS011;12036;50.858;4.472;2022-12-18T06:07:15;25.33;;;11.68;;
23714;SDS011;12036;50.858;4.472;2022-12-18T06:09:41;17.45;;;8.82;;
23714;SDS011;12036;50.858;4.472;2022-12-18T06:12:06;23.10;;;9.88;;
23714;SDS011;12036;50.858;4.472;2022-12-18T06:14:32;19.55;;;9.32;;
23714;SDS011;12036;50.858;4.472;2022-12-18T06:16:57;20.17;;;9.40;;
23714;SDS011;12036;50.858;4.472;2022-12-18T06:19:23;18.77;;;9.63;;
23714;SDS011;12036;50.858;4.472;2022-12-18T06:21:49;17.20;;;9.20;;
23714;SDS011;12036;50.858;4.472;2022-12-18T06:24:15;18.25;;;9.80;;
23714;SDS011;12036;50.858;4.472;2022-12-18T06:26:40;21.13;;;10.48;;
23714;SDS011;12036;50.858;4.472;2022-12-18T06:29:06;19.92;;;10.18;;
23714;SDS011;12036;50.858;4.472;2022-12-18T06:31:32;19.83;;;9.55;;
23714;SDS011;12036;50.858;4.472;2022-12-18T06:33:58;18.05;;;9.00;;
23714;SDS011;12036;50.858;4.472;2022-12-18T06:36:24;12.55;;;7.90;;
23714;SDS011;12036;50.858;4.472;2022-12-18T06:38:49;18.48;;;9.13;;
23714;SDS011;12036;50.858;4.472;2022-12-18T06:41:16;20.63;;;10.43;;
23714;SDS011;12036;50.858;4.472;2022-12-18T06:43:44;22.55;;;10.40;;
23714;SDS011;12036;50.858;4.472;2022-12-18T06:46:10;19.85;;;9.95;;
23714;SDS011;12036;50.858;4.472;2022-12-18T06:48:36;22.50;;;9.73;;
23714;SDS011;12036;50.858;4.472;2022-12-18T06:51:02;21.60;;;9.85;;
23714;SDS011;12036;50.858;4.472;2022-12-18T06:53:28;19.38;;;9.52;;
23714;SDS011;12036;50.858;4.472;2022-12-18T06:56:04;17.38;;;9.25;;
23714;SDS011;12036;50.858;4.472;2022-12-18T06:58:31;17.55;;;9.32;;
23714;SDS011;12036;50.858;4.472;2022-12-18T07:01:01;18.35;;;9.02;;
23714;SDS011;12036;50.858;4.472;2022-12-18T07:03:28;17.30;;;9.33;;
23714;SDS011;12036;50.858;4.472;2022-12-18T07:05:53;17.95;;;9.38;;
23714;SDS011;12036;50.858;4.472;2022-12-18T07:08:19;22.17;;;9.30;;
23714;SDS011;12036;50.858;4.472;2022-12-18T07:10:45;18.90;;;9.23;;
23714;SDS011;12036;50.858;4.472;2022-12-18T07:13:10;19.60;;;8.55;;
23714;SDS011;12036;50.858;4.472;2022-12-18T07:15:36;18.17;;;9.73;;
23714;SDS011;12036;50.858;4.472;2022-12-18T07:18:01;18.83;;;9.52;;
23714;SDS011;12036;50.858;4.472;2022-12-18T07:20:27;16.90;;;8.38;;
23714;SDS011;12036;50.858;4.472;2022-12-18T07:22:53;21.73;;;9.18;;
23714;SDS011;12036;50.858;4.472;2022-12-18T07:25:18;18.23;;;9.32;;
23714;SDS011;12036;50.858;4.472;2022-12-18T07:27:44;20.45;;;10.18;;
23714;SDS011;12036;50.858;4.472;2022-12-18T07:30:10;23.73;;;10.43;;
23714;SDS011;12036;50.858;4.472;2022-12-18T07:32:36;18.60;;;8.43;;
23714;SDS011;12036;50.858;4.472;2022-12-18T07:35:01;17.75;;;9.45;;
23714;SDS011;12036;50.858;4.472;2022-12-18T07:37:27;20.70;;;10.27;;
23714;SDS011;12036;50.858;4.472;2022-12-18T07:39:53;19.50;;;9.45;;
23714;SDS011;12036;50.858;4.472;2022-12-18T07:42:18;17.02;;;9.73;;
23714;SDS011;12036;50.858;4.472;2022-12-18T07:44:57;18.95;;;9.50;;
23714;SDS011;12036;50.858;4.472;2022-12-18T07:47:23;21.08;;;10.60;;
23714;SDS011;12036;50.858;4.472;2022-12-18T07:49:49;18.75;;;9.57;;
23714;SDS011;12036;50.858;4.472;2022-12-18T07:52:15;17.40;;;9.50;;
23714;SDS011;12036;50.858;4.472;2022-12-18T07:54:40;13.27;;;8.10;;
23714;SDS011;12036;50.858;4.472;2022-12-18T07:57:06;18.10;;;9.43;;
23714;SDS011;12036;50.858;4.472;2022-12-18T07:59:32;17.65;;;8.15;;
23714;SDS011;12036;50.858;4.472;2022-12-18T08:01:58;18.35;;;8.43;;
23714;SDS011;12036;50.858;4.472;2022-12-18T08:04:24;17.17;;;8.52;;
23714;SDS011;12036;50.858;4.472;2022-12-18T08:06:50;17.75;;;8.98;;
23714;SDS011;12036;50.858;4.472;2022-12-18T08:09:16;17.42;;;8.40;;
23714;SDS011;12036;50.858;4.472;2022-12-18T08:11:42;17.10;;;7.72;;
23714;SDS011;12036;50.858;4.472;2022-12-18T08:14:08;16.63;;;9.00;;
23714;SDS011;12036;50.858;4.472;2022-12-18T08:16:34;18.00;;;8.60;;
23714;SDS011;12036;50.858;4.472;2022-12-18T08:19:00;17.27;;;9.27;;
23714;SDS011;12036;50.858;4.472;2022-12-18T08:21:27;14.13;;;8.55;;
23714;SDS011;12036;50.858;4.472;2022-12-18T08:23:55;14.48;;;8.70;;
23714;SDS011;12036;50.858;4.472;2022-12-18T08:26:22;17.15;;;8.18;;
23714;SDS011;12036;50.858;4.472;2022-12-18T08:28:50;18.27;;;8.45;;
23714;SDS011;12036;50.858;4.472;2022-12-18T08:31:16;21.70;;;8.73;;
23714;SDS011;12036;50.858;4.472;2022-12-18T08:33:42;25.85;;;8.88;;
23714;SDS011;12036;50.858;4.472;2022-12-18T08:36:08;17.50;;;8.40;;
23714;SDS011;12036;50.858;4.472;2022-12-18T08:38:35;13.52;;;7.38;;
23714;SDS011;12036;50.858;4.472;2022-12-18T08:41:04;15.57;;;7.65;;
23714;SDS011;12036;50.858;4.472;2022-12-18T08:43:32;12.57;;;7.18;;
23714;SDS011;12036;50.858;4.472;2022-12-18T08:46:16;22.08;;;9.30;;
23714;SDS011;12036;50.858;4.472;2022-12-18T08:48:43;14.45;;;8.35;;
23714;SDS011;12036;50.858;4.472;2022-12-18T08:51:09;14.57;;;7.72;;
23714;SDS011;12036;50.858;4.472;2022-12-18T08:53:35;14.18;;;7.00;;
23714;SDS011;12036;50.858;4.472;2022-12-18T08:56:01;15.63;;;9.07;;
23714;SDS011;12036;50.858;4.472;2022-12-18T08:58:27;13.75;;;7.20;;
23714;SDS011;12036;50.858;4.472;2022-12-18T09:00:53;14.10;;;7.13;;
23714;SDS011;12036;50.858;4.472;2022-12-18T09:03:19;16.17;;;7.57;;
23714;SDS011;12036;50.858;4.472;2022-12-18T09:05:47;17.80;;;8.25;;
23714;SDS011;12036;50.858;4.472;2022-12-18T09:08:13;17.55;;;7.90;;
23714;SDS011;12036;50.858;4.472;2022-12-18T09:10:42;17.27;;;8.32;;
23714;SDS011;12036;50.858;4.472;2022-12-18T09:13:09;12.77;;;6.18;;
23714;SDS011;12036;50.858;4.472;2022-12-18T09:15:40;14.32;;;7.45;;
23714;SDS011;12036;50.858;4.472;2022-12-18T09:18:10;13.95;;;7.93;;
23714;SDS011;12036;50.858;4.472;2022-12-18T09:20:36;12.80;;;7.13;;
23714;SDS011;12036;50.858;4.472;2022-12-18T09:23:02;11.63;;;7.32;;
23714;SDS011;12036;50.858;4.472;2022-12-18T09:25:29;15.13;;;7.65;;
23714;SDS011;12036;50.858;4.472;2022-12-18T09:27:58;13.30;;;7.88;;
23714;SDS011;12036;50.858;4.472;2022-12-18T09:30:25;13.68;;;7.47;;
23714;SDS011;12036;50.858;4.472;2022-12-18T09:32:51;15.05;;;7.25;;
23714;SDS011;12036;50.858;4.472;2022-12-18T09:35:17;11.82;;;7.38;;
23714;SDS011;12036;50.858;4.472;2022-12-18T09:37:42;16.20;;;7.47;;
23714;SDS011;12036;50.858;4.472;2022-12-18T09:40:14;13.43;;;7.80;;
23714;SDS011;12036;50.858;4.472;2022-12-18T09:42:44;12.82;;;7.43;;
23714;SDS011;12036;50.858;4.472;2022-12-18T09:45:14;13.60;;;7.30;;
23714;SDS011;12036;50.858;4.472;2022-12-18T09:47:41;12.73;;;8.23;;
23714;SDS011;12036;50.858;4.472;2022-12-18T09:53:09;13.18;;;8.00;;
23714;SDS011;12036;50.858;4.472;2022-12-18T10:00:35;13.68;;;7.85;;
23714;SDS011;12036;50.858;4.472;2022-12-18T10:03:03;10.70;;;7.22;;
23714;SDS011;12036;50.858;4.472;2022-12-18T10:10:57;13.43;;;8.18;;
23714;SDS011;12036;50.858;4.472;2022-12-18T10:13:46;13.95;;;7.85;;
23714;SDS011;12036;50.858;4.472;2022-12-18T10:21:32;13.50;;;8.43;;
23714;SDS011;12036;50.858;4.472;2022-12-18T10:26:38;17.33;;;8.95;;
23714;SDS011;12036;50.858;4.472;2022-12-18T10:29:13;14.18;;;8.13;;
23714;SDS011;12036;50.858;4.472;2022-12-18T10:31:41;16.77;;;10.35;;
23714;SDS011;12036;50.858;4.472;2022-12-18T10:34:12;13.75;;;8.57;;
23714;SDS011;12036;50.858;4.472;2022-12-18T10:36:38;14.55;;;8.57;;
23714;SDS011;12036;50.858;4.472;2022-12-18T10:39:14;16.42;;;9.38;;
23714;SDS011;12036;50.858;4.472;2022-12-18T10:41:42;15.60;;;9.10;;
23714;SDS011;12036;50.858;4.472;2022-12-18T10:46:50;15.82;;;8.63;;
23714;SDS011;12036;50.858;4.472;2022-12-18T10:49:26;15.30;;;8.73;;
23714;SDS011;12036;50.858;4.472;2022-12-18T10:54:57;18.45;;;8.98;;
23714;SDS011;12036;50.858;4.472;2022-12-18T10:57:31;15.70;;;9.57;;
23714;SDS011;12036;50.858;4.472;2022-12-18T11:02:49;15.77;;;9.45;;
23714;SDS011;12036;50.858;4.472;2022-12-18T11:07:54;17.65;;;10.10;;
23714;SDS011;12036;50.858;4.472;2022-12-18T11:10:23;17.17;;;10.18;;
23714;SDS011;12036;50.858;4.472;2022-12-18T11:13:15;18.17;;;10.65;;
23714;SDS011;12036;50.858;4.472;2022-12-18T11:15:43;18.77;;;10.48;;
23714;SDS011;12036;50.858;4.472;2022-12-18T11:18:43;17.13;;;10.02;;
23714;SDS011;12036;50.858;4.472;2022-12-18T11:21:09;17.52;;;10.05;;
23714;SDS011;12036;50.858;4.472;2022-12-18T11:23:36;23.00;;;10.18;;
23714;SDS011;12036;50.858;4.472;2022-12-18T11:26:10;23.13;;;11.35;;
23714;SDS011;12036;50.858;4.472;2022-12-18T11:28:52;16.95;;;10.15;;
23714;SDS011;12036;50.858;4.472;2022-12-18T11:31:32;18.60;;;10.70;;
23714;SDS011;12036;50.858;4.472;2022-12-18T11:36:43;16.23;;;10.93;;
23714;SDS011;12036;50.858;4.472;2022-12-18T11:41:50;18.60;;;10.82;;
23714;SDS011;12036;50.858;4.472;2022-12-18T11:50:46;18.15;;;11.05;;
23714;SDS011;12036;50.858;4.472;2022-12-18T11:53:02;20.30;;;10.80;;
23714;SDS011;12036;50.858;4.472;2022-12-18T12:03:56;22.17;;;10.93;;
23714;SDS011;12036;50.858;4.472;2022-12-18T12:17:29;29.15;;;14.00;;
23714;SDS011;12036;50.858;4.472;2022-12-18T12:25:59;23.15;;;12.30;;
23714;SDS011;12036;50.858;4.472;2022-12-18T12:39:59;21.02;;;10.27;;
23714;SDS011;12036;50.858;4.472;2022-12-18T12:42:29;20.52;;;10.73;;
23714;SDS011;12036;50.858;4.472;2022-12-18T12:45:29;24.02;;;12.23;;
23714;SDS011;12036;50.858;4.472;2022-12-18T12:48:04;24.15;;;11.98;;
23714;SDS011;12036;50.858;4.472;2022-12-18T12:50:38;23.92;;;12.02;;
23714;SDS011;12036;50.858;4.472;2022-12-18T12:53:08;20.13;;;11.57;;
23714;SDS011;12036;50.858;4.472;2022-12-18T12:55:39;16.85;;;9.50;;
23714;SDS011;12036;50.858;4.472;2022-12-18T13:01:07;20.50;;;10.95;;
23714;SDS011;12036;50.858;4.472;2022-12-18T13:03:46;22.08;;;11.63;;
23714;SDS011;12036;50.858;4.472;2022-12-18T13:14:24;20.33;;;11.63;;
23714;SDS011;12036;50.858;4.472;2022-12-18T13:19:44;17.20;;;9.88;;
23714;SDS011;12036;50.858;4.472;2022-12-18T13:22:23;18.20;;;10.57;;
23714;SDS011;12036;50.858;4.472;2022-12-18T13:24:53;21.35;;;10.38;;
23714;SDS011;12036;50.858;4.472;2022-12-18T13:38:25;19.48;;;10.30;;
23714;SDS011;12036;50.858;4.472;2022-12-18T13:41:03;16.10;;;8.80;;
23714;SDS011;12036;50.858;4.472;2022-12-18T13:43:31;20.20;;;11.30;;
23714;SDS011;12036;50.858;4.472;2022-12-18T13:46:41;21.95;;;11.38;;
23714;SDS011;12036;50.858;4.472;2022-12-18T13:51:38;22.10;;;12.23;;
23714;SDS011;12036;50.858;4.472;2022-12-18T13:54:28;23.50;;;11.82;;
23714;SDS011;12036;50.858;4.472;2022-12-18T13:57:04;24.73;;;11.93;;
23714;SDS011;12036;50.858;4.472;2022-12-18T13:59:48;23.70;;;11.43;;
23714;SDS011;12036;50.858;4.472;2022-12-18T14:02:15;21.15;;;11.18;;
23714;SDS011;12036;50.858;4.472;2022-12-18T14:04:46;24.42;;;11.63;;
23714;SDS011;12036;50.858;4.472;2022-12-18T14:09:50;26.85;;;12.32;;
23714;SDS011;12036;50.858;4.472;2022-12-18T14:12:21;22.65;;;11.18;;
23714;SDS011;12036;50.858;4.472;2022-12-18T14:15:31;26.00;;;12.38;;
23714;SDS011;12036;50.858;4.472;2022-12-18T14:20:26;23.38;;;12.30;;
23714;SDS011;12036;50.858;4.472;2022-12-18T14:22:54;24.40;;;12.50;;
23714;SDS011;12036;50.858;4.472;2022-12-18T14:25:24;25.42;;;12.82;;
23714;SDS011;12036;50.858;4.472;2022-12-18T14:30:35;23.83;;;12.75;;
23714;SDS011;12036;50.858;4.472;2022-12-18T14:33:14;27.17;;;12.32;;
23714;SDS011;12036;50.858;4.472;2022-12-18T14:41:05;25.70;;;12.77;;
23714;SDS011;12036;50.858;4.472;2022-12-18T14:43:35;28.95;;;13.27;;
23714;SDS011;12036;50.858;4.472;2022-12-18T14:46:04;29.08;;;13.85;;
23714;SDS011;12036;50.858;4.472;2022-12-18T14:48:49;25.95;;;13.88;;
23714;SDS011;12036;50.858;4.472;2022-12-18T14:51:16;22.75;;;12.65;;
23714;SDS011;12036;50.858;4.472;2022-12-18T14:53:48;27.58;;;13.52;;
23714;SDS011;12036;50.858;4.472;2022-12-18T15:01:34;30.23;;;14.70;;
23714;SDS011;12036;50.858;4.472;2022-12-18T15:04:03;29.13;;;14.18;;
23714;SDS011;12036;50.858;4.472;2022-12-18T15:06:34;29.10;;;14.13;;
23714;SDS011;12036;50.858;4.472;2022-12-18T15:09:22;26.58;;;13.68;;
23714;SDS011;12036;50.858;4.472;2022-12-18T15:11:55;29.08;;;14.38;;
23714;SDS011;12036;50.858;4.472;2022-12-18T15:17:27;30.35;;;15.73;;
23714;SDS011;12036;50.858;4.472;2022-12-18T15:19:53;29.48;;;14.98;;
23714;SDS011;12036;50.858;4.472;2022-12-18T15:22:26;31.75;;;13.93;;
23714;SDS011;12036;50.858;4.472;2022-12-18T15:24:54;26.67;;;13.73;;
23714;SDS011;12036;50.858;4.472;2022-12-18T15:27:25;25.45;;;13.23;;
23714;SDS011;12036;50.858;4.472;2022-12-18T15:32:49;27.13;;;14.02;;
23714;SDS011;12036;50.858;4.472;2022-12-18T15:35:17;33.47;;;16.58;;
23714;SDS011;12036;50.858;4.472;2022-12-18T15:37:45;30.13;;;14.15;;
23714;SDS011;12036;50.858;4.472;2022-12-18T15:40:14;26.92;;;14.35;;
23714;SDS011;12036;50.858;4.472;2022-12-18T15:42:45;28.95;;;14.50;;
23714;SDS011;12036;50.858;4.472;2022-12-18T15:45:30;32.92;;;14.50;;
23714;SDS011;12036;50.858;4.472;2022-12-18T15:47:56;27.88;;;14.15;;
23714;SDS011;12036;50.858;4.472;2022-12-18T15:50:21;31.35;;;15.00;;
23714;SDS011;12036;50.858;4.472;2022-12-18T15:52:49;37.13;;;15.27;;
23714;SDS011;12036;50.858;4.472;2022-12-18T15:55:17;31.50;;;15.13;;
23714;SDS011;12036;50.858;4.472;2022-12-18T15:58:07;28.55;;;14.45;;
23714;SDS011;12036;50.858;4.472;2022-12-18T16:00:34;30.60;;;15.05;;
23714;SDS011;12036;50.858;4.472;2022-12-18T16:03:01;30.95;;;14.70;;
23714;SDS011;12036;50.858;4.472;2022-12-18T16:05:28;27.92;;;13.82;;
23714;SDS011;12036;50.858;4.472;2022-12-18T16:07:54;31.42;;;15.15;;
23714;SDS011;12036;50.858;4.472;2022-12-18T16:10:20;27.45;;;14.13;;
23714;SDS011;12036;50.858;4.472;2022-12-18T16:12:45;28.98;;;14.38;;
23714;SDS011;12036;50.858;4.472;2022-12-18T16:15:12;29.15;;;13.70;;
23714;SDS011;12036;50.858;4.472;2022-12-18T16:17:40;30.75;;;14.50;;
23714;SDS011;12036;50.858;4.472;2022-12-18T16:20:11;29.23;;;14.70;;
23714;SDS011;12036;50.858;4.472;2022-12-18T16:22:40;29.55;;;14.55;;
23714;SDS011;12036;50.858;4.472;2022-12-18T16:25:08;29.63;;;15.13;;
23714;SDS011;12036;50.858;4.472;2022-12-18T16:27:40;30.55;;;14.90;;
23714;SDS011;12036;50.858;4.472;2022-12-18T16:30:05;26.80;;;13.80;;
23714;SDS011;12036;50.858;4.472;2022-12-18T16:32:31;30.23;;;14.13;;
23714;SDS011;12036;50.858;4.472;2022-12-18T16:34:59;25.27;;;13.45;;
23714;SDS011;12036;50.858;4.472;2022-12-18T16:37:25;31.33;;;13.98;;
23714;SDS011;12036;50.858;4.472;2022-12-18T16:39:51;23.83;;;12.40;;
23714;SDS011;12036;50.858;4.472;2022-12-18T16:42:17;28.40;;;14.07;;
23714;SDS011;12036;50.858;4.472;2022-12-18T16:44:44;31.55;;;14.43;;
23714;SDS011;12036;50.858;4.472;2022-12-18T16:47:11;29.23;;;13.18;;
23714;SDS011;12036;50.858;4.472;2022-12-18T16:49:37;26.42;;;13.93;;
23714;SDS011;12036;50.858;4.472;2022-12-18T16:52:03;30.52;;;13.75;;
23714;SDS011;12036;50.858;4.472;2022-12-18T16:54:30;29.50;;;14.75;;
23714;SDS011;12036;50.858;4.472;2022-12-18T16:56:57;26.85;;;13.10;;
23714;SDS011;12036;50.858;4.472;2022-12-18T16:59:23;32.33;;;13.93;;
23714;SDS011;12036;50.858;4.472;2022-12-18T17:01:50;33.08;;;14.65;;
23714;SDS011;12036;50.858;4.472;2022-12-18T17:04:16;29.23;;;13.68;;
23714;SDS011;12036;50.858;4.472;2022-12-18T17:06:42;27.58;;;13.43;;
23714;SDS011;12036;50.858;4.472;2022-12-18T17:09:11;27.85;;;12.77;;
23714;SDS011;12036;50.858;4.472;2022-12-18T17:11:39;27.42;;;13.35;;
23714;SDS011;12036;50.858;4.472;2022-12-18T17:14:09;24.48;;;13.25;;
23714;SDS011;12036;50.858;4.472;2022-12-18T17:16:37;26.88;;;13.13;;
23714;SDS011;12036;50.858;4.472;2022-12-18T17:19:02;27.98;;;13.35;;
23714;SDS011;12036;50.858;4.472;2022-12-18T17:21:28;24.98;;;13.48;;
23714;SDS011;12036;50.858;4.472;2022-12-18T17:23:54;25.95;;;13.60;;